sensor_id;sensor_type;location;lat;lon;timestamp;P1;durP1;ratioP1;P2;durP2;ratioP2
79487;SDS011;68949;53.176;18.088;2023-09-19T00:00:24;17.40;;;12.70;;
79487;SDS011;68949;53.176;18.088;2023-09-19T00:03:14;20.00;;;12.70;;
79487;SDS011;68949;53.176;18.088;2023-09-19T00:05:41;21.20;;;13.30;;
79487;SDS011;68949;53.176;18.088;2023-09-19T00:08:11;21.20;;;15.80;;
79487;SDS011;68949;53.176;18.088;2023-09-19T00:10:42;18.40;;;13.60;;
79487;SDS011;68949;53.176;18.088;2023-09-19T00:13:10;20.70;;;15.20;;
79487;SDS011;68949;53.176;18.088;2023-09-19T00:15:43;18.90;;;14.50;;
79487;SDS011;68949;53.176;18.088;2023-09-19T00:18:21;23.10;;;15.60;;
79487;SDS011;68949;53.176;18.088;2023-09-19T00:20:49;23.10;;;15.60;;
79487;SDS011;68949;53.176;18.088;2023-09-19T00:23:17;16.60;;;11.70;;
79487;SDS011;68949;53.176;18.088;2023-09-19T00:25:45;18.10;;;11.30;;
79487;SDS011;68949;53.176;18.088;2023-09-19T00:28:12;16.30;;;12.40;;
79487;SDS011;68949;53.176;18.088;2023-09-19T00:30:42;19.90;;;12.60;;
79487;SDS011;68949;53.176;18.088;2023-09-19T00:33:11;19.00;;;12.70;;
79487;SDS011;68949;53.176;18.088;2023-09-19T00:35:53;20.50;;;14.80;;
79487;SDS011;68949;53.176;18.088;2023-09-19T00:38:21;17.40;;;12.70;;
79487;SDS011;68949;53.176;18.088;2023-09-19T00:40:56;18.50;;;12.50;;
79487;SDS011;68949;53.176;18.088;2023-09-19T00:43:26;16.70;;;11.50;;
79487;SDS011;68949;53.176;18.088;2023-09-19T00:45:55;19.60;;;14.20;;
79487;SDS011;68949;53.176;18.088;2023-09-19T00:48:24;20.00;;;14.10;;
79487;SDS011;68949;53.176;18.088;2023-09-19T00:50:54;14.10;;;10.30;;
79487;SDS011;68949;53.176;18.088;2023-09-19T00:53:24;15.70;;;9.40;;
79487;SDS011;68949;53.176;18.088;2023-09-19T00:55:55;15.90;;;9.10;;
79487;SDS011;68949;53.176;18.088;2023-09-19T00:58:22;14.10;;;9.10;;
79487;SDS011;68949;53.176;18.088;2023-09-19T01:00:49;11.70;;;8.60;;
79487;SDS011;68949;53.176;18.088;2023-09-19T01:03:17;14.80;;;10.50;;
79487;SDS011;68949;53.176;18.088;2023-09-19T01:05:44;12.50;;;8.50;;
79487;SDS011;68949;53.176;18.088;2023-09-19T01:08:12;12.20;;;7.20;;
79487;SDS011;68949;53.176;18.088;2023-09-19T01:14:25;12.10;;;5.90;;
79487;SDS011;68949;53.176;18.088;2023-09-19T01:17:11;9.00;;;5.10;;
79487;SDS011;68949;53.176;18.088;2023-09-19T01:20:07;7.00;;;3.80;;
79487;SDS011;68949;53.176;18.088;2023-09-19T01:23:20;9.10;;;4.00;;
79487;SDS011;68949;53.176;18.088;2023-09-19T01:26:15;11.40;;;4.00;;
79487;SDS011;68949;53.176;18.088;2023-09-19T01:29:19;7.20;;;2.90;;
79487;SDS011;68949;53.176;18.088;2023-09-19T01:32:04;6.70;;;2.70;;
79487;SDS011;68949;53.176;18.088;2023-09-19T01:34:51;5.40;;;2.80;;
79487;SDS011;68949;53.176;18.088;2023-09-19T01:37:21;7.90;;;2.80;;
79487;SDS011;68949;53.176;18.088;2023-09-19T01:39:56;6.40;;;2.90;;
79487;SDS011;68949;53.176;18.088;2023-09-19T01:42:37;9.40;;;3.10;;
79487;SDS011;68949;53.176;18.088;2023-09-19T01:48:13;5.40;;;2.40;;
79487;SDS011;68949;53.176;18.088;2023-09-19T01:51:05;5.80;;;2.20;;
79487;SDS011;68949;53.176;18.088;2023-09-19T01:56:50;6.30;;;2.30;;
79487;SDS011;68949;53.176;18.088;2023-09-19T01:59:24;6.40;;;2.20;;
79487;SDS011;68949;53.176;18.088;2023-09-19T02:01:55;5.70;;;2.40;;
79487;SDS011;68949;53.176;18.088;2023-09-19T02:04:23;5.40;;;1.80;;
79487;SDS011;68949;53.176;18.088;2023-09-19T02:06:52;8.60;;;2.60;;
79487;SDS011;68949;53.176;18.088;2023-09-19T02:09:19;4.00;;;1.50;;
79487;SDS011;68949;53.176;18.088;2023-09-19T02:11:46;5.20;;;2.10;;
79487;SDS011;68949;53.176;18.088;2023-09-19T02:14:13;4.90;;;2.10;;
79487;SDS011;68949;53.176;18.088;2023-09-19T02:16:40;5.30;;;2.00;;
79487;SDS011;68949;53.176;18.088;2023-09-19T02:19:07;6.70;;;2.60;;
79487;SDS011;68949;53.176;18.088;2023-09-19T02:21:34;4.20;;;1.50;;
79487;SDS011;68949;53.176;18.088;2023-09-19T02:24:01;5.00;;;2.10;;
79487;SDS011;68949;53.176;18.088;2023-09-19T02:26:29;5.00;;;2.20;;
79487;SDS011;68949;53.176;18.088;2023-09-19T02:28:56;6.80;;;2.50;;
79487;SDS011;68949;53.176;18.088;2023-09-19T02:31:22;5.30;;;2.30;;
79487;SDS011;68949;53.176;18.088;2023-09-19T02:33:49;6.70;;;2.50;;
79487;SDS011;68949;53.176;18.088;2023-09-19T02:36:15;7.10;;;2.70;;
79487;SDS011;68949;53.176;18.088;2023-09-19T02:38:43;6.60;;;2.60;;
79487;SDS011;68949;53.176;18.088;2023-09-19T02:41:10;6.30;;;2.30;;
79487;SDS011;68949;53.176;18.088;2023-09-19T02:43:38;6.00;;;2.70;;
79487;SDS011;68949;53.176;18.088;2023-09-19T02:46:05;7.80;;;3.10;;
79487;SDS011;68949;53.176;18.088;2023-09-19T02:48:31;7.00;;;2.90;;
79487;SDS011;68949;53.176;18.088;2023-09-19T02:50:59;6.70;;;3.10;;
79487;SDS011;68949;53.176;18.088;2023-09-19T02:53:27;7.30;;;2.60;;
79487;SDS011;68949;53.176;18.088;2023-09-19T02:55:53;6.30;;;2.80;;
79487;SDS011;68949;53.176;18.088;2023-09-19T02:58:20;6.00;;;2.40;;
79487;SDS011;68949;53.176;18.088;2023-09-19T03:00:47;5.70;;;2.50;;
79487;SDS011;68949;53.176;18.088;2023-09-19T03:03:16;7.40;;;2.10;;
79487;SDS011;68949;53.176;18.088;2023-09-19T03:05:43;7.80;;;3.20;;
79487;SDS011;68949;53.176;18.088;2023-09-19T03:08:14;9.20;;;2.80;;
79487;SDS011;68949;53.176;18.088;2023-09-19T03:10:46;6.20;;;2.70;;
79487;SDS011;68949;53.176;18.088;2023-09-19T03:13:14;9.10;;;3.60;;
79487;SDS011;68949;53.176;18.088;2023-09-19T03:15:42;9.10;;;4.60;;
79487;SDS011;68949;53.176;18.088;2023-09-19T03:18:19;9.70;;;4.90;;
79487;SDS011;68949;53.176;18.088;2023-09-19T03:20:54;10.30;;;4.60;;
79487;SDS011;68949;53.176;18.088;2023-09-19T03:23:23;11.50;;;5.10;;
79487;SDS011;68949;53.176;18.088;2023-09-19T03:25:50;7.70;;;4.20;;
79487;SDS011;68949;53.176;18.088;2023-09-19T03:28:19;10.30;;;4.20;;
79487;SDS011;68949;53.176;18.088;2023-09-19T03:31:01;8.80;;;4.70;;
79487;SDS011;68949;53.176;18.088;2023-09-19T03:33:29;9.00;;;4.50;;
79487;SDS011;68949;53.176;18.088;2023-09-19T03:36:00;9.10;;;3.80;;
79487;SDS011;68949;53.176;18.088;2023-09-19T03:38:32;7.30;;;3.50;;
79487;SDS011;68949;53.176;18.088;2023-09-19T03:41:01;7.20;;;4.20;;
79487;SDS011;68949;53.176;18.088;2023-09-19T03:43:28;8.80;;;4.20;;
79487;SDS011;68949;53.176;18.088;2023-09-19T03:45:55;8.00;;;4.10;;
79487;SDS011;68949;53.176;18.088;2023-09-19T03:48:22;7.80;;;3.90;;
79487;SDS011;68949;53.176;18.088;2023-09-19T03:50:50;8.10;;;3.70;;
79487;SDS011;68949;53.176;18.088;2023-09-19T03:53:17;10.60;;;4.50;;
79487;SDS011;68949;53.176;18.088;2023-09-19T03:55:45;7.80;;;3.60;;
79487;SDS011;68949;53.176;18.088;2023-09-19T03:58:12;7.10;;;4.20;;
79487;SDS011;68949;53.176;18.088;2023-09-19T04:00:40;7.50;;;3.30;;
79487;SDS011;68949;53.176;18.088;2023-09-19T04:03:07;5.60;;;2.50;;
79487;SDS011;68949;53.176;18.088;2023-09-19T04:05:34;7.30;;;2.90;;
79487;SDS011;68949;53.176;18.088;2023-09-19T04:08:01;6.70;;;2.90;;
79487;SDS011;68949;53.176;18.088;2023-09-19T04:10:45;10.20;;;4.40;;
79487;SDS011;68949;53.176;18.088;2023-09-19T04:13:12;10.00;;;3.90;;
79487;SDS011;68949;53.176;18.088;2023-09-19T04:15:38;7.10;;;3.40;;
79487;SDS011;68949;53.176;18.088;2023-09-19T04:18:06;8.90;;;3.80;;
79487;SDS011;68949;53.176;18.088;2023-09-19T04:20:33;8.50;;;4.00;;
79487;SDS011;68949;53.176;18.088;2023-09-19T04:23:00;9.10;;;4.10;;
79487;SDS011;68949;53.176;18.088;2023-09-19T04:25:27;9.30;;;4.20;;
79487;SDS011;68949;53.176;18.088;2023-09-19T04:27:55;8.70;;;3.60;;
79487;SDS011;68949;53.176;18.088;2023-09-19T04:30:22;11.70;;;3.70;;
79487;SDS011;68949;53.176;18.088;2023-09-19T04:32:49;8.60;;;3.70;;
79487;SDS011;68949;53.176;18.088;2023-09-19T04:35:17;7.20;;;3.80;;
79487;SDS011;68949;53.176;18.088;2023-09-19T04:37:44;9.20;;;3.60;;
79487;SDS011;68949;53.176;18.088;2023-09-19T04:40:10;9.00;;;4.20;;
79487;SDS011;68949;53.176;18.088;2023-09-19T04:42:43;7.20;;;3.40;;
79487;SDS011;68949;53.176;18.088;2023-09-19T04:45:10;5.60;;;2.60;;
79487;SDS011;68949;53.176;18.088;2023-09-19T04:47:38;6.60;;;3.00;;
79487;SDS011;68949;53.176;18.088;2023-09-19T04:50:09;8.10;;;4.10;;
79487;SDS011;68949;53.176;18.088;2023-09-19T04:52:41;9.20;;;3.70;;
79487;SDS011;68949;53.176;18.088;2023-09-19T04:55:12;8.50;;;3.20;;
79487;SDS011;68949;53.176;18.088;2023-09-19T04:57:44;9.20;;;3.40;;
79487;SDS011;68949;53.176;18.088;2023-09-19T05:00:13;8.10;;;3.10;;
79487;SDS011;68949;53.176;18.088;2023-09-19T05:02:41;7.80;;;3.60;;
79487;SDS011;68949;53.176;18.088;2023-09-19T05:05:09;8.70;;;3.70;;
79487;SDS011;68949;53.176;18.088;2023-09-19T05:07:41;6.90;;;3.30;;
79487;SDS011;68949;53.176;18.088;2023-09-19T05:10:09;5.80;;;2.40;;
79487;SDS011;68949;53.176;18.088;2023-09-19T05:12:38;6.80;;;2.80;;
79487;SDS011;68949;53.176;18.088;2023-09-19T05:15:06;9.70;;;3.40;;
79487;SDS011;68949;53.176;18.088;2023-09-19T05:17:34;7.10;;;2.80;;
79487;SDS011;68949;53.176;18.088;2023-09-19T05:20:02;7.50;;;3.10;;
79487;SDS011;68949;53.176;18.088;2023-09-19T05:22:42;6.90;;;2.00;;
79487;SDS011;68949;53.176;18.088;2023-09-19T05:25:10;6.60;;;2.60;;
79487;SDS011;68949;53.176;18.088;2023-09-19T05:27:37;7.00;;;3.00;;
79487;SDS011;68949;53.176;18.088;2023-09-19T05:30:04;7.10;;;2.90;;
79487;SDS011;68949;53.176;18.088;2023-09-19T05:32:31;5.90;;;2.60;;
79487;SDS011;68949;53.176;18.088;2023-09-19T05:34:58;9.30;;;2.80;;
79487;SDS011;68949;53.176;18.088;2023-09-19T05:37:25;6.50;;;2.70;;
79487;SDS011;68949;53.176;18.088;2023-09-19T05:39:52;8.40;;;2.90;;
79487;SDS011;68949;53.176;18.088;2023-09-19T05:42:22;4.60;;;2.00;;
79487;SDS011;68949;53.176;18.088;2023-09-19T05:44:48;7.80;;;3.60;;
79487;SDS011;68949;53.176;18.088;2023-09-19T05:47:15;6.80;;;2.90;;
79487;SDS011;68949;53.176;18.088;2023-09-19T05:49:42;5.70;;;2.80;;
79487;SDS011;68949;53.176;18.088;2023-09-19T05:52:08;9.30;;;3.20;;
79487;SDS011;68949;53.176;18.088;2023-09-19T05:54:35;8.80;;;3.10;;
79487;SDS011;68949;53.176;18.088;2023-09-19T05:57:01;6.60;;;3.30;;
79487;SDS011;68949;53.176;18.088;2023-09-19T05:59:28;7.70;;;3.00;;
79487;SDS011;68949;53.176;18.088;2023-09-19T06:01:55;8.80;;;3.00;;
79487;SDS011;68949;53.176;18.088;2023-09-19T06:04:22;7.60;;;3.10;;
79487;SDS011;68949;53.176;18.088;2023-09-19T06:06:49;7.50;;;2.60;;
79487;SDS011;68949;53.176;18.088;2023-09-19T06:09:16;5.60;;;3.00;;
79487;SDS011;68949;53.176;18.088;2023-09-19T06:11:43;6.00;;;3.10;;
79487;SDS011;68949;53.176;18.088;2023-09-19T06:14:10;8.80;;;4.20;;
79487;SDS011;68949;53.176;18.088;2023-09-19T06:16:38;8.30;;;3.50;;
79487;SDS011;68949;53.176;18.088;2023-09-19T06:19:05;6.30;;;2.20;;
79487;SDS011;68949;53.176;18.088;2023-09-19T06:21:36;6.00;;;3.40;;
79487;SDS011;68949;53.176;18.088;2023-09-19T06:24:04;4.90;;;2.60;;
79487;SDS011;68949;53.176;18.088;2023-09-19T06:26:31;6.10;;;2.90;;
79487;SDS011;68949;53.176;18.088;2023-09-19T06:28:58;7.40;;;2.90;;
79487;SDS011;68949;53.176;18.088;2023-09-19T06:31:26;6.90;;;2.70;;
79487;SDS011;68949;53.176;18.088;2023-09-19T06:33:52;6.40;;;2.90;;
79487;SDS011;68949;53.176;18.088;2023-09-19T06:36:19;5.80;;;2.70;;
79487;SDS011;68949;53.176;18.088;2023-09-19T06:38:46;7.60;;;3.00;;
79487;SDS011;68949;53.176;18.088;2023-09-19T06:41:13;6.30;;;3.40;;
79487;SDS011;68949;53.176;18.088;2023-09-19T06:43:41;4.90;;;2.70;;
79487;SDS011;68949;53.176;18.088;2023-09-19T06:46:07;7.80;;;3.40;;
79487;SDS011;68949;53.176;18.088;2023-09-19T06:48:36;8.30;;;3.30;;
79487;SDS011;68949;53.176;18.088;2023-09-19T06:51:02;8.20;;;3.20;;
79487;SDS011;68949;53.176;18.088;2023-09-19T06:53:34;5.60;;;3.00;;
79487;SDS011;68949;53.176;18.088;2023-09-19T06:56:02;6.80;;;3.50;;
79487;SDS011;68949;53.176;18.088;2023-09-19T06:58:29;7.60;;;3.50;;
79487;SDS011;68949;53.176;18.088;2023-09-19T07:00:57;6.90;;;3.20;;
79487;SDS011;68949;53.176;18.088;2023-09-19T07:03:24;7.90;;;3.70;;
79487;SDS011;68949;53.176;18.088;2023-09-19T07:05:53;7.50;;;3.60;;
79487;SDS011;68949;53.176;18.088;2023-09-19T07:08:22;8.00;;;3.50;;
79487;SDS011;68949;53.176;18.088;2023-09-19T07:10:49;8.10;;;3.70;;
79487;SDS011;68949;53.176;18.088;2023-09-19T07:13:16;8.70;;;4.00;;
79487;SDS011;68949;53.176;18.088;2023-09-19T07:15:45;11.30;;;4.40;;
79487;SDS011;68949;53.176;18.088;2023-09-19T07:18:16;5.20;;;2.30;;
79487;SDS011;68949;53.176;18.088;2023-09-19T07:20:45;6.40;;;4.00;;
79487;SDS011;68949;53.176;18.088;2023-09-19T07:23:19;7.80;;;3.60;;
79487;SDS011;68949;53.176;18.088;2023-09-19T07:25:49;6.60;;;3.90;;
79487;SDS011;68949;53.176;18.088;2023-09-19T07:28:16;8.50;;;4.10;;
79487;SDS011;68949;53.176;18.088;2023-09-19T07:30:43;7.20;;;4.60;;
79487;SDS011;68949;53.176;18.088;2023-09-19T07:33:10;10.20;;;4.50;;
79487;SDS011;68949;53.176;18.088;2023-09-19T07:35:38;10.30;;;4.60;;
79487;SDS011;68949;53.176;18.088;2023-09-19T07:38:08;7.60;;;4.20;;
79487;SDS011;68949;53.176;18.088;2023-09-19T07:40:36;9.50;;;4.60;;
79487;SDS011;68949;53.176;18.088;2023-09-19T07:43:03;6.70;;;3.50;;
79487;SDS011;68949;53.176;18.088;2023-09-19T07:45:31;6.90;;;3.70;;
79487;SDS011;68949;53.176;18.088;2023-09-19T07:47:58;11.50;;;3.50;;
79487;SDS011;68949;53.176;18.088;2023-09-19T07:50:28;8.70;;;4.20;;
79487;SDS011;68949;53.176;18.088;2023-09-19T07:52:55;6.90;;;3.60;;
79487;SDS011;68949;53.176;18.088;2023-09-19T07:55:22;10.40;;;4.60;;
79487;SDS011;68949;53.176;18.088;2023-09-19T07:57:54;6.20;;;3.50;;
79487;SDS011;68949;53.176;18.088;2023-09-19T08:00:21;7.40;;;4.10;;
79487;SDS011;68949;53.176;18.088;2023-09-19T08:02:48;5.50;;;3.30;;
79487;SDS011;68949;53.176;18.088;2023-09-19T08:05:15;5.80;;;2.60;;
79487;SDS011;68949;53.176;18.088;2023-09-19T08:07:46;6.20;;;3.20;;
79487;SDS011;68949;53.176;18.088;2023-09-19T08:10:16;7.40;;;3.40;;
79487;SDS011;68949;53.176;18.088;2023-09-19T08:12:47;7.60;;;3.50;;
79487;SDS011;68949;53.176;18.088;2023-09-19T08:15:21;6.50;;;3.50;;
79487;SDS011;68949;53.176;18.088;2023-09-19T08:17:48;9.50;;;3.80;;
79487;SDS011;68949;53.176;18.088;2023-09-19T08:20:15;6.00;;;2.90;;
79487;SDS011;68949;53.176;18.088;2023-09-19T08:22:49;7.00;;;3.70;;
79487;SDS011;68949;53.176;18.088;2023-09-19T08:25:26;6.20;;;2.80;;
79487;SDS011;68949;53.176;18.088;2023-09-19T08:27:54;7.00;;;3.30;;
79487;SDS011;68949;53.176;18.088;2023-09-19T08:30:27;8.00;;;3.80;;
79487;SDS011;68949;53.176;18.088;2023-09-19T08:32:57;6.70;;;3.00;;
79487;SDS011;68949;53.176;18.088;2023-09-19T08:35:25;7.70;;;3.40;;
79487;SDS011;68949;53.176;18.088;2023-09-19T08:37:52;7.40;;;3.50;;
79487;SDS011;68949;53.176;18.088;2023-09-19T08:40:19;6.90;;;3.20;;
79487;SDS011;68949;53.176;18.088;2023-09-19T08:42:53;6.50;;;3.90;;
79487;SDS011;68949;53.176;18.088;2023-09-19T08:45:22;4.70;;;2.80;;
79487;SDS011;68949;53.176;18.088;2023-09-19T08:48:22;7.10;;;3.70;;
79487;SDS011;68949;53.176;18.088;2023-09-19T08:51:07;7.00;;;3.40;;
79487;SDS011;68949;53.176;18.088;2023-09-19T08:53:55;6.10;;;3.40;;
79487;SDS011;68949;53.176;18.088;2023-09-19T08:56:32;5.80;;;2.60;;
79487;SDS011;68949;53.176;18.088;2023-09-19T08:59:03;7.50;;;3.10;;
79487;SDS011;68949;53.176;18.088;2023-09-19T09:01:31;7.00;;;3.00;;
79487;SDS011;68949;53.176;18.088;2023-09-19T09:03:58;8.70;;;3.30;;
79487;SDS011;68949;53.176;18.088;2023-09-19T09:06:28;6.20;;;3.10;;
79487;SDS011;68949;53.176;18.088;2023-09-19T09:08:56;6.40;;;3.20;;
79487;SDS011;68949;53.176;18.088;2023-09-19T09:11:23;6.50;;;2.80;;
79487;SDS011;68949;53.176;18.088;2023-09-19T09:13:51;6.60;;;3.30;;
79487;SDS011;68949;53.176;18.088;2023-09-19T09:16:17;6.60;;;2.90;;
79487;SDS011;68949;53.176;18.088;2023-09-19T09:18:49;6.40;;;3.00;;
79487;SDS011;68949;53.176;18.088;2023-09-19T09:21:21;6.10;;;2.60;;
79487;SDS011;68949;53.176;18.088;2023-09-19T09:23:51;5.40;;;2.50;;
79487;SDS011;68949;53.176;18.088;2023-09-19T09:29:05;8.90;;;2.50;;
79487;SDS011;68949;53.176;18.088;2023-09-19T09:31:32;6.10;;;2.00;;
79487;SDS011;68949;53.176;18.088;2023-09-19T09:33:58;10.30;;;2.60;;
79487;SDS011;68949;53.176;18.088;2023-09-19T09:36:36;4.30;;;2.00;;
79487;SDS011;68949;53.176;18.088;2023-09-19T09:39:07;4.90;;;2.00;;
79487;SDS011;68949;53.176;18.088;2023-09-19T09:41:51;5.00;;;2.10;;
79487;SDS011;68949;53.176;18.088;2023-09-19T09:44:18;5.90;;;2.00;;
79487;SDS011;68949;53.176;18.088;2023-09-19T09:46:46;7.50;;;2.40;;
79487;SDS011;68949;53.176;18.088;2023-09-19T09:49:24;4.10;;;2.00;;
79487;SDS011;68949;53.176;18.088;2023-09-19T09:52:05;4.40;;;1.90;;
79487;SDS011;68949;53.176;18.088;2023-09-19T09:54:35;5.40;;;2.20;;
79487;SDS011;68949;53.176;18.088;2023-09-19T09:57:07;5.00;;;1.80;;
79487;SDS011;68949;53.176;18.088;2023-09-19T09:59:55;4.30;;;1.90;;
79487;SDS011;68949;53.176;18.088;2023-09-19T10:02:39;3.80;;;1.80;;
79487;SDS011;68949;53.176;18.088;2023-09-19T10:05:14;3.70;;;1.50;;
79487;SDS011;68949;53.176;18.088;2023-09-19T10:07:48;4.40;;;1.50;;
79487;SDS011;68949;53.176;18.088;2023-09-19T10:13:14;5.00;;;1.60;;
79487;SDS011;68949;53.176;18.088;2023-09-19T10:15:48;4.20;;;1.80;;
79487;SDS011;68949;53.176;18.088;2023-09-19T10:18:23;5.30;;;1.70;;
79487;SDS011;68949;53.176;18.088;2023-09-19T10:20:52;5.50;;;1.90;;
79487;SDS011;68949;53.176;18.088;2023-09-19T10:23:21;5.10;;;1.60;;
79487;SDS011;68949;53.176;18.088;2023-09-19T10:25:52;4.30;;;1.50;;
79487;SDS011;68949;53.176;18.088;2023-09-19T10:28:20;3.80;;;1.40;;
79487;SDS011;68949;53.176;18.088;2023-09-19T10:30:51;4.20;;;1.60;;
79487;SDS011;68949;53.176;18.088;2023-09-19T10:33:21;5.20;;;1.90;;
79487;SDS011;68949;53.176;18.088;2023-09-19T10:35:59;4.90;;;1.50;;
79487;SDS011;68949;53.176;18.088;2023-09-19T10:38:27;3.60;;;1.30;;
79487;SDS011;68949;53.176;18.088;2023-09-19T10:40:57;3.40;;;1.20;;
79487;SDS011;68949;53.176;18.088;2023-09-19T10:43:30;4.30;;;1.30;;
79487;SDS011;68949;53.176;18.088;2023-09-19T10:46:03;4.50;;;1.40;;
79487;SDS011;68949;53.176;18.088;2023-09-19T10:48:33;4.50;;;1.30;;
79487;SDS011;68949;53.176;18.088;2023-09-19T10:51:10;4.80;;;1.60;;
79487;SDS011;68949;53.176;18.088;2023-09-19T10:53:45;3.80;;;1.30;;
79487;SDS011;68949;53.176;18.088;2023-09-19T10:56:33;3.40;;;1.20;;
79487;SDS011;68949;53.176;18.088;2023-09-19T10:59:11;4.80;;;1.40;;
79487;SDS011;68949;53.176;18.088;2023-09-19T11:01:57;5.80;;;1.30;;
79487;SDS011;68949;53.176;18.088;2023-09-19T11:04:31;6.30;;;1.50;;
79487;SDS011;68949;53.176;18.088;2023-09-19T11:07:13;6.20;;;1.60;;
79487;SDS011;68949;53.176;18.088;2023-09-19T11:09:55;5.00;;;1.30;;
79487;SDS011;68949;53.176;18.088;2023-09-19T11:14:59;4.50;;;1.20;;
79487;SDS011;68949;53.176;18.088;2023-09-19T11:30:33;5.90;;;1.60;;
79487;SDS011;68949;53.176;18.088;2023-09-19T11:33:22;4.30;;;1.70;;
79487;SDS011;68949;53.176;18.088;2023-09-19T11:36:04;4.40;;;1.20;;
79487;SDS011;68949;53.176;18.088;2023-09-19T11:43:47;4.70;;;1.30;;
79487;SDS011;68949;53.176;18.088;2023-09-19T11:46:14;4.00;;;1.20;;
79487;SDS011;68949;53.176;18.088;2023-09-19T11:48:48;4.20;;;1.30;;
79487;SDS011;68949;53.176;18.088;2023-09-19T11:51:21;3.90;;;1.10;;
79487;SDS011;68949;53.176;18.088;2023-09-19T11:53:57;3.80;;;1.40;;
79487;SDS011;68949;53.176;18.088;2023-09-19T11:56:28;4.90;;;1.00;;
79487;SDS011;68949;53.176;18.088;2023-09-19T11:58:56;4.50;;;1.30;;
79487;SDS011;68949;53.176;18.088;2023-09-19T12:01:31;5.00;;;1.10;;
79487;SDS011;68949;53.176;18.088;2023-09-19T12:04:01;4.60;;;0.90;;
79487;SDS011;68949;53.176;18.088;2023-09-19T12:06:33;3.10;;;0.90;;
79487;SDS011;68949;53.176;18.088;2023-09-19T12:09:02;5.00;;;1.10;;
79487;SDS011;68949;53.176;18.088;2023-09-19T12:11:48;3.40;;;1.10;;
79487;SDS011;68949;53.176;18.088;2023-09-19T12:14:23;4.20;;;1.20;;
79487;SDS011;68949;53.176;18.088;2023-09-19T12:16:56;4.10;;;1.00;;
79487;SDS011;68949;53.176;18.088;2023-09-19T12:19:25;6.20;;;1.60;;
79487;SDS011;68949;53.176;18.088;2023-09-19T12:22:03;4.30;;;1.20;;
79487;SDS011;68949;53.176;18.088;2023-09-19T12:24:33;4.30;;;1.30;;
79487;SDS011;68949;53.176;18.088;2023-09-19T12:27:06;3.90;;;1.10;;
79487;SDS011;68949;53.176;18.088;2023-09-19T12:29:44;3.80;;;1.20;;
79487;SDS011;68949;53.176;18.088;2023-09-19T12:32:13;5.30;;;1.30;;
79487;SDS011;68949;53.176;18.088;2023-09-19T12:34:50;3.40;;;1.00;;
79487;SDS011;68949;53.176;18.088;2023-09-19T12:37:19;4.10;;;1.00;;
79487;SDS011;68949;53.176;18.088;2023-09-19T12:39:50;3.50;;;1.30;;
79487;SDS011;68949;53.176;18.088;2023-09-19T12:42:21;4.70;;;1.20;;
79487;SDS011;68949;53.176;18.088;2023-09-19T12:44:51;4.60;;;1.50;;
79487;SDS011;68949;53.176;18.088;2023-09-19T12:47:28;4.20;;;1.40;;
79487;SDS011;68949;53.176;18.088;2023-09-19T12:50:09;3.50;;;1.10;;
79487;SDS011;68949;53.176;18.088;2023-09-19T12:52:42;3.20;;;0.90;;
79487;SDS011;68949;53.176;18.088;2023-09-19T12:55:26;3.30;;;1.00;;
79487;SDS011;68949;53.176;18.088;2023-09-19T13:00:37;4.70;;;1.10;;
79487;SDS011;68949;53.176;18.088;2023-09-19T13:03:25;5.00;;;1.40;;
79487;SDS011;68949;53.176;18.088;2023-09-19T13:05:59;4.50;;;1.20;;
79487;SDS011;68949;53.176;18.088;2023-09-19T13:08:35;4.60;;;1.30;;
79487;SDS011;68949;53.176;18.088;2023-09-19T13:11:13;5.90;;;1.40;;
79487;SDS011;68949;53.176;18.088;2023-09-19T13:16:54;3.80;;;1.10;;
79487;SDS011;68949;53.176;18.088;2023-09-19T13:19:40;4.40;;;1.30;;
79487;SDS011;68949;53.176;18.088;2023-09-19T13:25:17;4.40;;;1.40;;
79487;SDS011;68949;53.176;18.088;2023-09-19T13:27:47;5.60;;;1.40;;
79487;SDS011;68949;53.176;18.088;2023-09-19T13:30:18;6.30;;;1.50;;
79487;SDS011;68949;53.176;18.088;2023-09-19T13:32:45;4.00;;;1.20;;
79487;SDS011;68949;53.176;18.088;2023-09-19T13:35:14;4.90;;;1.20;;
79487;SDS011;68949;53.176;18.088;2023-09-19T13:37:42;5.60;;;1.40;;
79487;SDS011;68949;53.176;18.088;2023-09-19T13:40:14;6.40;;;1.50;;
79487;SDS011;68949;53.176;18.088;2023-09-19T13:42:42;4.70;;;1.40;;
79487;SDS011;68949;53.176;18.088;2023-09-19T13:45:10;5.00;;;1.40;;
79487;SDS011;68949;53.176;18.088;2023-09-19T13:47:40;4.20;;;1.40;;
79487;SDS011;68949;53.176;18.088;2023-09-19T13:50:07;4.30;;;1.50;;
79487;SDS011;68949;53.176;18.088;2023-09-19T13:52:34;5.20;;;1.30;;
79487;SDS011;68949;53.176;18.088;2023-09-19T13:55:01;5.30;;;1.50;;
79487;SDS011;68949;53.176;18.088;2023-09-19T13:57:27;4.90;;;1.30;;
79487;SDS011;68949;53.176;18.088;2023-09-19T13:59:56;6.50;;;1.50;;
79487;SDS011;68949;53.176;18.088;2023-09-19T14:02:23;4.90;;;1.30;;
79487;SDS011;68949;53.176;18.088;2023-09-19T14:04:51;4.90;;;1.40;;
79487;SDS011;68949;53.176;18.088;2023-09-19T14:07:18;5.60;;;1.40;;
79487;SDS011;68949;53.176;18.088;2023-09-19T14:09:46;3.80;;;1.40;;
79487;SDS011;68949;53.176;18.088;2023-09-19T14:12:14;4.80;;;1.50;;
79487;SDS011;68949;53.176;18.088;2023-09-19T14:14:41;5.20;;;1.60;;
79487;SDS011;68949;53.176;18.088;2023-09-19T14:17:08;5.20;;;1.70;;
79487;SDS011;68949;53.176;18.088;2023-09-19T14:19:35;7.10;;;2.10;;
79487;SDS011;68949;53.176;18.088;2023-09-19T14:22:03;5.80;;;2.00;;
79487;SDS011;68949;53.176;18.088;2023-09-19T14:24:34;4.20;;;1.60;;
79487;SDS011;68949;53.176;18.088;2023-09-19T14:27:01;5.20;;;1.60;;
79487;SDS011;68949;53.176;18.088;2023-09-19T14:29:30;4.60;;;1.50;;
79487;SDS011;68949;53.176;18.088;2023-09-19T14:31:57;4.50;;;1.50;;
79487;SDS011;68949;53.176;18.088;2023-09-19T14:34:24;5.40;;;1.80;;
79487;SDS011;68949;53.176;18.088;2023-09-19T14:36:51;4.50;;;1.50;;
79487;SDS011;68949;53.176;18.088;2023-09-19T14:39:17;4.80;;;1.60;;
79487;SDS011;68949;53.176;18.088;2023-09-19T14:41:46;5.70;;;1.50;;
79487;SDS011;68949;53.176;18.088;2023-09-19T14:44:12;4.60;;;1.80;;
79487;SDS011;68949;53.176;18.088;2023-09-19T14:46:39;5.30;;;1.90;;
79487;SDS011;68949;53.176;18.088;2023-09-19T14:49:06;4.00;;;1.20;;
79487;SDS011;68949;53.176;18.088;2023-09-19T14:51:33;8.20;;;1.90;;
79487;SDS011;68949;53.176;18.088;2023-09-19T14:54:02;4.50;;;1.20;;
79487;SDS011;68949;53.176;18.088;2023-09-19T14:56:29;5.00;;;1.40;;
79487;SDS011;68949;53.176;18.088;2023-09-19T14:58:57;4.80;;;1.70;;
79487;SDS011;68949;53.176;18.088;2023-09-19T15:01:24;6.30;;;1.80;;
79487;SDS011;68949;53.176;18.088;2023-09-19T15:03:50;6.20;;;2.00;;
79487;SDS011;68949;53.176;18.088;2023-09-19T15:06:17;5.70;;;1.70;;
79487;SDS011;68949;53.176;18.088;2023-09-19T15:08:47;6.60;;;1.80;;
79487;SDS011;68949;53.176;18.088;2023-09-19T15:11:15;4.60;;;1.90;;
79487;SDS011;68949;53.176;18.088;2023-09-19T15:13:46;6.90;;;1.70;;
79487;SDS011;68949;53.176;18.088;2023-09-19T15:16:14;5.10;;;1.80;;
79487;SDS011;68949;53.176;18.088;2023-09-19T15:18:42;6.00;;;1.60;;
79487;SDS011;68949;53.176;18.088;2023-09-19T15:21:12;6.00;;;1.90;;
79487;SDS011;68949;53.176;18.088;2023-09-19T15:23:41;5.70;;;1.90;;
79487;SDS011;68949;53.176;18.088;2023-09-19T15:26:13;6.50;;;1.70;;
79487;SDS011;68949;53.176;18.088;2023-09-19T15:28:46;6.80;;;2.00;;
79487;SDS011;68949;53.176;18.088;2023-09-19T15:31:14;4.70;;;1.70;;
79487;SDS011;68949;53.176;18.088;2023-09-19T15:33:40;6.60;;;2.00;;
79487;SDS011;68949;53.176;18.088;2023-09-19T15:36:09;4.90;;;1.30;;
79487;SDS011;68949;53.176;18.088;2023-09-19T15:39:03;5.50;;;1.80;;